createdAt,value
2023-03-06T00:00:02.139Z,2.00
2023-03-06T00:01:17.453Z,1.73
2023-03-06T00:02:18.910Z,2.00
2023-03-06T00:03:21.299Z,1.37
2023-03-06T00:04:22.932Z,1.60
2023-03-06T00:05:24.487Z,1.20
2023-03-06T00:06:26.053Z,1.67
2023-03-06T00:07:27.779Z,2.07
2023-03-06T00:08:29.452Z,1.20
2023-03-06T00:09:31.265Z,1.83
2023-03-06T00:10:33.426Z,1.57
2023-03-06T00:11:34.873Z,1.50
2023-03-06T00:12:36.404Z,1.63
2023-03-06T00:13:38.895Z,1.93
2023-03-06T00:14:40.303Z,2.37
2023-03-06T00:15:42.463Z,1.77
2023-03-06T00:16:44.457Z,3.93
2023-03-06T00:17:45.822Z,1.83
2023-03-06T00:18:47.778Z,1.43
2023-03-06T00:19:49.211Z,2.00
2023-03-06T00:20:50.786Z,1.70
2023-03-06T00:21:52.309Z,1.57
2023-03-06T00:22:56.905Z,1.60
2023-03-06T00:23:58.546Z,1.87
2023-03-06T00:25:00.103Z,2.00
2023-03-06T00:26:01.680Z,2.00
2023-03-06T00:27:03.371Z,1.70
2023-03-06T00:28:06.042Z,1.80
2023-03-06T00:29:08.205Z,1.60
2023-03-06T00:30:14.818Z,1.53
2023-03-06T00:31:16.878Z,1.73
2023-03-06T00:32:18.387Z,1.53
2023-03-06T00:33:19.868Z,2.30
2023-03-06T00:34:21.275Z,1.20
2023-03-06T00:35:23.675Z,1.80
2023-03-06T00:36:25.114Z,1.30
2023-03-06T00:37:26.523Z,1.40
2023-03-06T00:38:31.516Z,1.70
2023-03-06T00:39:33.093Z,1.40
2023-03-06T00:40:34.495Z,1.87
2023-03-06T00:41:35.873Z,1.63
2023-03-06T00:42:37.345Z,1.40
2023-03-06T00:43:39.182Z,1.70
2023-03-06T00:44:42.529Z,1.47
2023-03-06T00:45:44.079Z,1.63
2023-03-06T00:46:46.001Z,1.77
2023-03-06T00:47:47.496Z,2.47
2023-03-06T00:48:49.533Z,1.40
2023-03-06T00:49:51.081Z,1.63
2023-03-06T00:50:53.603Z,1.27
2023-03-06T00:51:54.990Z,2.00
2023-03-06T00:52:56.503Z,1.90
2023-03-06T00:53:59.535Z,1.50
2023-03-06T00:55:00.973Z,1.50
2023-03-06T00:56:02.493Z,1.63
2023-03-06T00:57:04.630Z,2.30
2023-03-06T00:58:06.030Z,1.70
2023-03-06T00:59:07.610Z,2.00
2023-03-06T01:00:12.237Z,1.70
2023-03-06T01:01:14.337Z,2.70
2023-03-06T01:02:15.808Z,1.80
2023-03-06T01:03:17.371Z,2.50
2023-03-06T01:04:19.023Z,2.13
2023-03-06T01:05:23.170Z,1.80
2023-03-06T01:06:24.750Z,1.90
2023-03-06T01:07:27.795Z,1.80
2023-03-06T01:08:29.306Z,2.30
2023-03-06T01:09:31.752Z,1.57
2023-03-06T01:10:33.260Z,1.37
2023-03-06T01:11:34.736Z,1.30
2023-03-06T01:12:36.279Z,1.80
2023-03-06T01:13:37.993Z,1.40
2023-03-06T01:14:39.684Z,1.97
2023-03-06T01:15:41.147Z,1.50
2023-03-06T01:16:42.653Z,1.30
2023-03-06T01:17:44.711Z,1.80
2023-03-06T01:18:47.184Z,1.83
2023-03-06T01:19:48.881Z,1.10
2023-03-06T01:20:50.696Z,1.50
2023-03-06T01:21:52.253Z,2.10
2023-03-06T01:22:55.505Z,2.10
2023-03-06T01:23:57.095Z,1.50
2023-03-06T01:24:58.787Z,1.80
2023-03-06T01:26:00.545Z,1.83
2023-03-06T01:27:01.960Z,2.13
2023-03-06T01:28:03.800Z,2.30
2023-03-06T01:29:06.389Z,1.70
2023-03-06T01:30:08.628Z,1.40
2023-03-06T01:31:11.153Z,1.73
2023-03-06T01:32:12.683Z,1.90
2023-03-06T01:33:15.635Z,1.53
2023-03-06T01:34:17.328Z,1.70
2023-03-06T01:35:18.874Z,2.37
2023-03-06T01:36:20.379Z,1.60
2023-03-06T01:37:21.823Z,1.80
2023-03-06T01:38:23.313Z,1.90
2023-03-06T01:39:25.864Z,2.50
2023-03-06T01:40:27.322Z,2.33
2023-03-06T01:41:28.857Z,1.93
2023-03-06T01:42:32.139Z,2.27
2023-03-06T01:43:44.490Z,1.93
2023-03-06T01:45:12.586Z,2.53
2023-03-06T01:46:28.907Z,2.23
2023-03-06T01:47:31.058Z,2.03
2023-03-06T01:48:32.974Z,2.10
2023-03-06T01:49:41.430Z,2.30
2023-03-06T01:50:43.400Z,1.90
2023-03-06T01:51:53.429Z,1.80
2023-03-06T01:53:00.335Z,1.67
2023-03-06T01:54:05.182Z,2.03
2023-03-06T01:55:12.826Z,2.80
2023-03-06T01:56:14.916Z,2.50
2023-03-06T01:57:30.278Z,2.10
2023-03-06T01:58:31.762Z,2.03
2023-03-06T01:59:38.237Z,1.40
2023-03-06T02:00:39.687Z,2.30
2023-03-06T02:01:42.920Z,2.73
2023-03-06T02:03:06.774Z,2.87
2023-03-06T02:04:10.240Z,2.60
2023-03-06T02:05:12.298Z,2.17
2023-03-06T02:06:19.597Z,2.73
2023-03-06T02:07:22.581Z,2.07
2023-03-06T02:08:24.613Z,1.80
2023-03-06T02:09:30.039Z,2.17
2023-03-06T02:10:31.806Z,2.23
2023-03-06T02:11:33.398Z,1.80
2023-03-06T02:12:35.156Z,2.17
2023-03-06T02:13:37.036Z,2.03
2023-03-06T02:14:40.245Z,1.60
2023-03-06T02:15:41.778Z,2.73
2023-03-06T02:16:43.579Z,2.17
2023-03-06T02:17:46.920Z,2.30
2023-03-06T02:18:49.877Z,3.13
2023-03-06T02:20:28.368Z,2.13
2023-03-06T02:21:35.572Z,3.70
2023-03-06T02:22:56.806Z,3.10
2023-03-06T02:24:22.358Z,2.77
2023-03-06T02:25:38.473Z,2.30
2023-03-06T02:26:43.070Z,3.10
2023-03-06T02:27:44.922Z,1.90
2023-03-06T02:28:46.771Z,1.50
2023-03-06T02:29:48.270Z,2.47
2023-03-06T02:30:52.086Z,2.20
2023-03-06T02:31:53.623Z,2.43
2023-03-06T02:32:55.632Z,1.70
2023-03-06T02:34:07.982Z,2.50
2023-03-06T02:35:20.377Z,2.00
2023-03-06T02:36:22.046Z,2.30
2023-03-06T02:37:26.174Z,1.93
2023-03-06T02:38:33.097Z,2.37
2023-03-06T02:39:39.847Z,1.93
2023-03-06T02:40:44.329Z,2.93
2023-03-06T02:41:45.780Z,2.40
2023-03-06T02:42:52.595Z,2.00
2023-03-06T02:43:54.696Z,3.30
2023-03-06T02:44:59.304Z,2.57
2023-03-06T02:46:00.998Z,2.03
2023-03-06T02:47:02.512Z,2.40
2023-03-06T02:48:04.638Z,2.00
2023-03-06T02:49:06.128Z,2.23
2023-03-06T02:50:07.843Z,2.17
2023-03-06T02:51:09.600Z,1.90
2023-03-06T02:52:11.503Z,2.00
2023-03-06T02:53:16.247Z,2.80
2023-03-06T02:54:20.465Z,2.03
2023-03-06T02:55:22.239Z,2.07
2023-03-06T02:56:23.637Z,3.13
2023-03-06T02:57:25.007Z,2.27
2023-03-06T02:58:27.507Z,1.73
2023-03-06T02:59:29.617Z,1.97
2023-03-06T03:00:32.938Z,1.80
2023-03-06T03:01:36.609Z,1.67
2023-03-06T03:02:38.778Z,2.07
2023-03-06T03:03:40.294Z,2.57
2023-03-06T03:04:41.995Z,2.03
2023-03-06T03:05:44.101Z,2.13
2023-03-06T03:06:51.604Z,2.60
2023-03-06T03:07:53.915Z,1.90
2023-03-06T03:08:55.426Z,1.77
2023-03-06T03:09:57.498Z,2.20
2023-03-06T03:10:59.362Z,2.00
2023-03-06T03:12:07.025Z,3.20
2023-03-06T03:13:08.827Z,1.90
2023-03-06T03:14:11.913Z,2.13
2023-03-06T03:15:13.455Z,2.00
2023-03-06T03:16:15.649Z,2.20
2023-03-06T03:17:17.222Z,1.80
2023-03-06T03:18:20.932Z,2.33
2023-03-06T03:19:23.004Z,1.97
2023-03-06T03:20:24.808Z,2.00
2023-03-06T03:21:26.265Z,1.87
2023-03-06T03:22:29.279Z,2.53
2023-03-06T03:23:30.880Z,2.63
2023-03-06T03:24:32.613Z,2.63
2023-03-06T03:25:35.887Z,3.03
2023-03-06T03:26:38.167Z,1.83
2023-03-06T03:27:45.071Z,2.50
2023-03-06T03:28:47.206Z,2.50
2023-03-06T03:29:51.892Z,2.23
2023-03-06T03:30:53.941Z,2.37
2023-03-06T03:31:55.365Z,2.03
2023-03-06T03:32:59.794Z,2.13
2023-03-06T03:34:02.441Z,2.67
2023-03-06T03:35:09.369Z,1.73
2023-03-06T03:36:11.255Z,2.10
2023-03-06T03:37:16.504Z,2.30
2023-03-06T03:38:18.544Z,2.23
2023-03-06T03:39:20.285Z,2.73
2023-03-06T03:40:21.694Z,3.50
2023-03-06T03:41:24.758Z,2.90
2023-03-06T03:42:26.666Z,3.13
2023-03-06T03:43:29.121Z,2.80
2023-03-06T03:44:31.154Z,2.50
2023-03-06T03:45:33.332Z,2.33
2023-03-06T03:46:34.902Z,4.60
2023-03-06T03:47:37.529Z,3.00
2023-03-06T03:48:38.967Z,2.33
2023-03-06T03:49:41.456Z,3.80
2023-03-06T03:50:42.935Z,2.80
2023-03-06T03:51:44.491Z,3.00
2023-03-06T03:52:46.191Z,2.30
2023-03-06T03:53:47.998Z,2.60
2023-03-06T03:54:52.720Z,3.97
2023-03-06T03:55:54.286Z,3.23
2023-03-06T03:56:56.177Z,3.87
2023-03-06T03:58:01.828Z,2.43
2023-03-06T03:59:03.430Z,2.30
2023-03-06T04:00:16.012Z,2.60
2023-03-06T04:01:32.352Z,2.30
2023-03-06T04:02:34.119Z,2.27
2023-03-06T04:03:43.884Z,2.33
2023-03-06T04:04:46.685Z,2.13
2023-03-06T04:05:48.272Z,2.47
2023-03-06T04:06:51.241Z,2.03
2023-03-06T04:07:54.100Z,2.53
2023-03-06T04:08:56.139Z,2.93
2023-03-06T04:09:58.599Z,2.47
2023-03-06T04:11:01.568Z,2.03
2023-03-06T04:12:03.517Z,3.40
2023-03-06T04:13:08.158Z,2.10
2023-03-06T04:14:14.050Z,1.93
2023-03-06T04:15:17.338Z,1.83
2023-03-06T04:16:21.030Z,2.50
2023-03-06T04:17:24.566Z,2.50
2023-03-06T04:18:28.513Z,3.00
2023-03-06T04:19:33.766Z,2.60
2023-03-06T04:20:35.997Z,2.83
2023-03-06T04:21:38.584Z,3.90
2023-03-06T04:22:42.027Z,1.90
2023-03-06T04:23:45.249Z,1.80
2023-03-06T04:24:49.670Z,2.33
2023-03-06T04:25:51.812Z,2.80
2023-03-06T04:26:53.672Z,2.97
2023-03-06T04:27:55.237Z,2.33
2023-03-06T04:28:56.832Z,2.80
2023-03-06T04:29:58.919Z,2.67
2023-03-06T04:31:01.114Z,2.80
2023-03-06T04:32:03.191Z,4.23
2023-03-06T04:33:05.546Z,2.90
2023-03-06T04:34:07.373Z,2.47
2023-03-06T04:35:09.131Z,2.87
2023-03-06T04:36:28.374Z,2.97
2023-03-06T04:37:33.419Z,2.80
2023-03-06T04:38:35.974Z,3.10
2023-03-06T04:39:39.253Z,3.10
2023-03-06T04:40:40.888Z,2.70
2023-03-06T04:41:43.109Z,2.67
2023-03-06T04:42:44.642Z,3.90
2023-03-06T04:43:46.365Z,4.23
2023-03-06T04:44:47.869Z,3.90
2023-03-06T04:45:49.627Z,3.20
2023-03-06T04:46:51.238Z,2.67
2023-03-06T04:47:53.045Z,3.70
2023-03-06T04:48:54.584Z,3.40
2023-03-06T04:49:55.999Z,3.40
2023-03-06T04:50:57.489Z,4.27
2023-03-06T04:51:59.184Z,4.17
2023-03-06T04:53:01.997Z,3.23
2023-03-06T04:54:05.050Z,3.40
2023-03-06T04:55:12.132Z,3.20
2023-03-06T04:56:13.589Z,2.73
2023-03-06T04:57:16.018Z,4.50
2023-03-06T04:58:17.451Z,3.93
2023-03-06T04:59:18.885Z,3.30
2023-03-06T05:00:24.085Z,3.30
2023-03-06T05:01:25.680Z,2.47
2023-03-06T05:02:27.270Z,3.47
2023-03-06T05:03:28.797Z,3.93
2023-03-06T05:04:30.278Z,4.87
2023-03-06T05:05:31.724Z,4.23
2023-03-06T05:06:33.368Z,2.90
2023-03-06T05:07:34.849Z,2.67
2023-03-06T05:08:36.459Z,2.93
2023-03-06T05:09:39.217Z,2.90
2023-03-06T05:10:41.163Z,2.50
2023-03-06T05:11:42.899Z,2.60
2023-03-06T05:12:44.468Z,4.00
2023-03-06T05:13:45.935Z,2.83
2023-03-06T05:14:48.208Z,3.73
2023-03-06T05:15:49.742Z,5.10
2023-03-06T05:16:51.332Z,3.30
2023-03-06T05:17:52.932Z,3.30
2023-03-06T05:18:54.351Z,3.27
2023-03-06T05:19:55.844Z,3.03
2023-03-06T05:20:59.888Z,2.87
2023-03-06T05:22:01.592Z,3.30
2023-03-06T05:23:03.092Z,3.47
2023-03-06T05:24:04.631Z,3.00
2023-03-06T05:25:06.956Z,3.20
2023-03-06T05:26:13.562Z,2.70
2023-03-06T05:27:16.870Z,2.50
2023-03-06T05:28:18.423Z,3.57
2023-03-06T05:29:20.032Z,3.23
2023-03-06T05:30:23.183Z,3.20
2023-03-06T05:31:24.721Z,3.07
2023-03-06T05:32:26.328Z,3.57
2023-03-06T05:33:28.045Z,3.43
2023-03-06T05:34:29.628Z,3.60
2023-03-06T05:35:31.739Z,3.23
2023-03-06T05:36:33.406Z,4.90
2023-03-06T05:37:35.135Z,3.50
2023-03-06T05:38:36.766Z,4.10
2023-03-06T05:39:38.281Z,3.03
2023-03-06T05:40:42.061Z,3.73
2023-03-06T05:41:43.522Z,3.97
2023-03-06T05:42:44.986Z,3.17
2023-03-06T05:43:46.654Z,4.10
2023-03-06T05:44:48.101Z,3.30
2023-03-06T05:45:50.595Z,3.37
2023-03-06T05:46:52.055Z,3.70
2023-03-06T05:47:53.629Z,4.03
2023-03-06T05:48:55.473Z,2.87
2023-03-06T05:49:57.037Z,3.40
2023-03-06T05:50:59.739Z,3.20
2023-03-06T05:52:04.091Z,3.87
2023-03-06T05:53:05.708Z,2.90
2023-03-06T05:54:07.262Z,3.77
2023-03-06T05:55:11.769Z,3.33
2023-03-06T05:56:13.744Z,3.50
2023-03-06T05:57:15.290Z,4.00
2023-03-06T05:58:16.992Z,3.33
2023-03-06T05:59:18.846Z,2.80
2023-03-06T06:00:21.117Z,4.53
2023-03-06T06:01:25.302Z,3.50
2023-03-06T06:02:27.083Z,3.47
2023-03-06T06:03:28.641Z,3.03
2023-03-06T06:04:30.062Z,2.77
2023-03-06T06:05:31.562Z,2.60
2023-03-06T06:06:33.006Z,3.17
2023-03-06T06:07:34.508Z,3.97
2023-03-06T06:08:36.566Z,4.37
2023-03-06T06:09:38.042Z,3.00
2023-03-06T06:10:40.058Z,3.13
2023-03-06T06:11:41.461Z,3.03
2023-03-06T06:12:43.258Z,3.20
2023-03-06T06:13:44.831Z,3.43
2023-03-06T06:14:46.247Z,3.23
2023-03-06T06:15:47.668Z,3.90
2023-03-06T06:16:49.837Z,4.57
2023-03-06T06:17:51.304Z,4.37
2023-03-06T06:18:52.748Z,3.33
2023-03-06T06:19:54.798Z,2.73
2023-03-06T06:20:56.345Z,3.20
2023-03-06T06:21:58.556Z,3.97
2023-03-06T06:23:00.108Z,4.63
2023-03-06T06:24:01.816Z,4.07
2023-03-06T06:25:03.816Z,3.50
2023-03-06T06:26:07.428Z,3.50
2023-03-06T06:27:09.562Z,3.00
2023-03-06T06:28:12.391Z,2.90
2023-03-06T06:29:13.999Z,3.97
2023-03-06T06:30:15.792Z,4.37
2023-03-06T06:31:17.305Z,3.97
2023-03-06T06:32:19.101Z,3.77
2023-03-06T06:33:45.619Z,3.20
2023-03-06T06:34:47.367Z,3.57
2023-03-06T06:35:48.826Z,3.03
2023-03-06T06:36:53.338Z,3.80
2023-03-06T06:37:55.184Z,5.50
2023-03-06T06:38:56.700Z,3.90
2023-03-06T06:39:58.556Z,3.00
2023-03-06T06:41:33.491Z,4.07
2023-03-06T06:42:33.324Z,4.23
2023-03-06T06:43:36.703Z,3.30
2023-03-06T06:44:38.530Z,4.40
2023-03-06T06:45:40.066Z,3.83
2023-03-06T06:48:06.886Z,2.80
2023-03-06T06:49:08.390Z,4.40
2023-03-06T06:50:13.760Z,3.00
2023-03-06T06:51:15.888Z,3.33
2023-03-06T06:52:18.755Z,3.57
2023-03-06T06:53:20.631Z,4.53
2023-03-06T06:54:22.360Z,4.37
2023-03-06T06:55:23.767Z,3.53
2023-03-06T06:56:25.789Z,3.67
2023-03-06T06:57:27.358Z,3.17
2023-03-06T06:58:28.941Z,4.33
2023-03-06T06:59:30.352Z,3.37
2023-03-06T07:00:31.956Z,5.07
2023-03-06T07:01:33.480Z,3.73
2023-03-06T07:02:35.017Z,3.43
2023-03-06T07:03:36.695Z,4.20
2023-03-06T07:04:44.287Z,4.40
2023-03-06T07:05:56.604Z,3.30
2023-03-06T07:06:58.824Z,4.47
2023-03-06T07:08:00.467Z,4.50
2023-03-06T07:09:02.104Z,3.23
2023-03-06T07:10:11.268Z,2.60
2023-03-06T07:11:15.689Z,4.63
2023-03-06T07:12:17.155Z,4.00
2023-03-06T07:13:19.046Z,3.97
2023-03-06T07:14:20.557Z,4.07
2023-03-06T07:15:23.422Z,3.30
2023-03-06T07:16:24.830Z,2.83
2023-03-06T07:17:26.309Z,3.63
2023-03-06T07:18:27.894Z,3.53
2023-03-06T07:19:29.368Z,4.03
2023-03-06T07:20:31.927Z,3.97
2023-03-06T07:21:33.589Z,3.30
2023-03-06T07:22:49.987Z,3.50
2023-03-06T07:23:52.633Z,3.17
2023-03-06T07:24:54.059Z,3.60
2023-03-06T07:25:55.521Z,4.27
2023-03-06T07:26:57.142Z,2.93
2023-03-06T07:27:59.089Z,3.20
2023-03-06T07:29:03.779Z,3.73
2023-03-06T07:30:07.033Z,4.07
2023-03-06T07:31:13.406Z,3.30
2023-03-06T07:32:14.863Z,4.00
2023-03-06T07:33:16.762Z,4.20
2023-03-06T07:34:18.201Z,4.37
2023-03-06T07:35:20.938Z,3.30
2023-03-06T07:36:23.853Z,3.47
2023-03-06T07:37:25.339Z,3.80
2023-03-06T07:38:27.024Z,3.17
2023-03-06T07:39:30.108Z,4.10
2023-03-06T07:40:31.937Z,3.90
2023-03-06T07:41:33.578Z,3.60
2023-03-06T07:42:35.476Z,3.80
2023-03-06T07:43:37.656Z,4.10
2023-03-06T07:44:42.011Z,4.20
2023-03-06T07:45:43.459Z,3.63
2023-03-06T07:46:45.083Z,4.37
2023-03-06T07:47:46.614Z,3.57
2023-03-06T07:48:48.041Z,4.63
2023-03-06T07:49:49.431Z,4.17
2023-03-06T07:51:01.859Z,3.90
2023-03-06T07:52:04.188Z,3.20
2023-03-06T07:53:05.671Z,3.90
2023-03-06T07:54:07.242Z,5.80
2023-03-06T07:55:09.931Z,4.30
2023-03-06T07:56:12.305Z,2.87
2023-03-06T07:57:13.867Z,4.63
2023-03-06T07:58:15.493Z,4.87
2023-03-06T07:59:16.892Z,3.80
2023-03-06T08:00:19.219Z,4.13
2023-03-06T08:01:23.651Z,3.77
2023-03-06T08:02:25.175Z,3.00
2023-03-06T08:03:26.761Z,3.77
2023-03-06T08:04:29.128Z,4.50
2023-03-06T08:05:31.566Z,4.10
2023-03-06T08:06:33.546Z,4.97
2023-03-06T08:07:41.053Z,5.40
2023-03-06T08:08:48.054Z,3.43
2023-03-06T08:09:50.267Z,3.17
2023-03-06T08:10:52.842Z,3.73
2023-03-06T08:11:54.203Z,3.63
2023-03-06T08:12:56.815Z,3.33
2023-03-06T08:13:59.108Z,3.80
2023-03-06T08:15:00.880Z,3.60
2023-03-06T08:16:03.592Z,4.17
2023-03-06T08:17:06.579Z,3.23
2023-03-06T08:18:08.589Z,4.67
2023-03-06T08:19:11.240Z,3.30
2023-03-06T08:20:14.341Z,5.73
2023-03-06T08:21:18.987Z,3.47
2023-03-06T08:22:20.476Z,3.23
2023-03-06T08:23:22.156Z,2.80
2023-03-06T08:24:23.801Z,3.30
2023-03-06T08:25:25.437Z,3.63
2023-03-06T08:26:29.914Z,3.40
2023-03-06T08:27:32.926Z,2.87
2023-03-06T08:28:34.734Z,2.80
2023-03-06T08:29:36.249Z,3.10
2023-03-06T08:30:37.809Z,3.73
2023-03-06T08:31:45.555Z,3.70
2023-03-06T08:32:47.148Z,3.77
2023-03-06T08:33:49.021Z,3.60
2023-03-06T08:34:51.085Z,4.80
2023-03-06T08:35:52.964Z,3.60
2023-03-06T08:36:54.490Z,3.60
2023-03-06T08:37:55.921Z,4.93
2023-03-06T08:38:58.472Z,3.53
2023-03-06T08:39:59.955Z,3.93
2023-03-06T08:41:01.697Z,3.33
2023-03-06T08:42:03.366Z,3.37
2023-03-06T08:43:05.274Z,4.43
2023-03-06T08:44:07.244Z,3.33
2023-03-06T08:45:09.237Z,3.43
2023-03-06T08:46:11.706Z,3.33
2023-03-06T08:47:13.998Z,3.17
2023-03-06T08:48:15.898Z,3.27
2023-03-06T08:49:17.397Z,3.93
2023-03-06T08:50:19.143Z,3.30
2023-03-06T08:51:21.534Z,3.03
2023-03-06T08:52:23.017Z,5.07
2023-03-06T08:53:40.495Z,3.47
2023-03-06T08:54:43.900Z,3.93
2023-03-06T08:55:45.846Z,2.97
2023-03-06T08:56:48.045Z,4.60
2023-03-06T08:57:49.456Z,4.00
2023-03-06T08:58:51.737Z,3.57
2023-03-06T08:59:53.205Z,4.20
2023-03-06T09:00:55.368Z,3.40
2023-03-06T09:01:56.904Z,3.33
2023-03-06T09:02:58.637Z,4.10
2023-03-06T09:04:02.151Z,3.07
2023-03-06T09:05:08.057Z,3.20
2023-03-06T09:06:09.848Z,2.73
2023-03-06T09:07:11.306Z,4.93
2023-03-06T09:08:12.753Z,3.60
2023-03-06T09:09:14.240Z,3.67
2023-03-06T09:10:18.035Z,4.00
2023-03-06T09:11:20.603Z,3.23
2023-03-06T09:12:22.238Z,2.83
2023-03-06T09:13:23.623Z,3.83
2023-03-06T09:14:25.262Z,2.63
2023-03-06T09:15:26.861Z,3.63
2023-03-06T09:16:29.127Z,3.47
2023-03-06T09:17:30.650Z,4.53
2023-03-06T09:18:32.091Z,3.87
2023-03-06T09:19:33.497Z,3.00
2023-03-06T09:20:35.040Z,3.70
2023-03-06T09:21:36.673Z,3.53
2023-03-06T09:22:38.903Z,3.63
2023-03-06T09:23:40.409Z,3.50
2023-03-06T09:24:41.796Z,3.27
2023-03-06T09:25:43.472Z,5.17
2023-03-06T09:26:46.868Z,3.33
2023-03-06T09:28:01.843Z,4.13
2023-03-06T09:29:12.711Z,3.87
2023-03-06T09:30:14.779Z,2.97
2023-03-06T09:31:19.597Z,3.27
2023-03-06T09:32:22.045Z,3.60
2023-03-06T09:33:24.167Z,5.80
2023-03-06T09:34:27.584Z,2.80
2023-03-06T09:35:29.596Z,4.40
2023-03-06T09:36:31.354Z,3.17
2023-03-06T09:37:32.946Z,3.30
2023-03-06T09:38:35.107Z,3.00
2023-03-06T09:39:36.627Z,4.00
2023-03-06T09:41:03.347Z,4.23
2023-03-06T09:42:08.824Z,3.23
2023-03-06T09:43:20.720Z,4.13
2023-03-06T09:44:28.038Z,4.00
2023-03-06T09:45:30.923Z,3.87
2023-03-06T09:46:44.100Z,3.80
2023-03-06T09:47:48.012Z,2.67
2023-03-06T09:48:57.635Z,3.43
2023-03-06T09:50:29.444Z,3.60
2023-03-06T09:51:55.377Z,2.63
2023-03-06T09:53:37.196Z,2.60
2023-03-06T09:54:54.746Z,2.40
2023-03-06T09:56:03.878Z,3.57
2023-03-06T09:57:14.365Z,3.40
2023-03-06T09:58:25.842Z,3.60
2023-03-06T09:59:28.753Z,3.47
2023-03-06T10:00:43.650Z,5.33
2023-03-06T10:01:58.611Z,3.67
2023-03-06T10:03:19.845Z,3.47
2023-03-06T10:04:43.972Z,3.10
2023-03-06T10:05:52.555Z,2.73
2023-03-06T10:06:59.826Z,3.70
2023-03-06T10:08:05.375Z,3.10
2023-03-06T10:09:34.856Z,2.97
2023-03-06T10:10:46.708Z,2.93
2023-03-06T10:11:48.592Z,2.83
2023-03-06T10:13:06.426Z,3.50
2023-03-06T10:14:20.297Z,4.50
2023-03-06T10:15:26.724Z,3.27
2023-03-06T10:16:33.324Z,4.10
2023-03-06T10:17:38.429Z,3.33
2023-03-06T10:18:40.451Z,2.93
2023-03-06T10:19:42.403Z,3.37
2023-03-06T10:21:07.411Z,2.30
2023-03-06T10:22:43.741Z,3.27
2023-03-06T10:24:11.077Z,2.97
2023-03-06T10:25:46.410Z,2.70
2023-03-06T10:27:16.862Z,2.60
2023-03-06T10:28:24.945Z,2.90
2023-03-06T10:30:14.958Z,3.03
2023-03-06T10:31:24.412Z,3.20
2023-03-06T10:32:50.291Z,3.57
2023-03-06T10:34:08.957Z,3.07
2023-03-06T10:35:19.319Z,3.97
2023-03-06T10:36:23.045Z,4.23
2023-03-06T10:37:24.748Z,3.07
2023-03-06T10:38:32.473Z,4.63
2023-03-06T10:39:33.965Z,4.07
2023-03-06T10:40:44.878Z,3.60
2023-03-06T10:41:47.443Z,2.93
2023-03-06T10:42:54.009Z,3.37
2023-03-06T10:44:03.366Z,3.77
2023-03-06T10:45:13.628Z,2.50
2023-03-06T10:46:46.862Z,2.80
2023-03-06T10:47:49.064Z,3.20
2023-03-06T10:49:01.917Z,3.43
2023-03-06T10:50:26.061Z,3.13
2023-03-06T10:51:29.171Z,3.73
2023-03-06T10:52:35.734Z,3.30
2023-03-06T10:53:50.363Z,2.80
2023-03-06T10:54:52.571Z,2.80
2023-03-06T10:55:58.393Z,3.40
2023-03-06T10:57:18.868Z,2.83
2023-03-06T10:58:25.291Z,3.50
2023-03-06T10:59:30.382Z,4.27
2023-03-06T11:00:36.117Z,3.50
2023-03-06T11:01:38.681Z,3.40
2023-03-06T11:02:41.121Z,4.40
2023-03-06T11:03:43.259Z,3.80
2023-03-06T11:04:51.351Z,2.90
2023-03-06T11:06:00.606Z,3.20
2023-03-06T11:07:14.483Z,2.80
2023-03-06T11:08:22.447Z,3.33
2023-03-06T11:09:26.843Z,2.83
2023-03-06T11:10:31.070Z,3.07
2023-03-06T11:11:37.693Z,3.37
2023-03-06T11:12:42.113Z,3.60
2023-03-06T11:13:44.346Z,5.00
2023-03-06T11:14:45.741Z,3.20
2023-03-06T11:16:00.263Z,3.00
2023-03-06T11:17:01.946Z,3.60
2023-03-06T11:18:28.510Z,3.40
2023-03-06T11:19:32.657Z,3.60
2023-03-06T11:20:50.970Z,3.43
2023-03-06T11:22:20.054Z,2.63
2023-03-06T11:23:24.678Z,3.40
2023-03-06T11:24:27.574Z,2.87
2023-03-06T11:25:41.314Z,3.90
2023-03-06T11:27:03.494Z,2.83
2023-03-06T11:28:15.893Z,3.10
2023-03-06T11:29:27.071Z,3.13
2023-03-06T11:30:46.779Z,3.47
2023-03-06T11:31:52.018Z,3.00
2023-03-06T11:32:58.924Z,3.30
2023-03-06T11:34:12.137Z,3.17
2023-03-06T11:35:20.852Z,4.30
2023-03-06T11:36:27.865Z,4.30
2023-03-06T11:37:32.424Z,3.10
2023-03-06T11:38:42.210Z,3.33
2023-03-06T11:39:59.898Z,3.00
2023-03-06T11:41:05.849Z,4.33
2023-03-06T11:42:28.389Z,3.83
2023-03-06T11:43:56.981Z,3.13
2023-03-06T11:45:04.504Z,2.27
2023-03-06T11:46:29.223Z,3.50
2023-03-06T11:47:58.982Z,2.60
2023-03-06T11:49:27.587Z,3.67
2023-03-06T11:50:36.628Z,2.70
2023-03-06T11:51:44.704Z,2.83
2023-03-06T11:52:48.844Z,3.50
2023-03-06T11:53:50.481Z,2.70
2023-03-06T11:54:57.644Z,2.20
2023-03-06T11:56:19.946Z,2.50
2023-03-06T11:57:35.187Z,2.23
2023-03-06T11:58:50.694Z,2.10
2023-03-06T12:00:42.300Z,2.80
2023-03-06T12:02:11.581Z,2.33
2023-03-06T12:03:31.629Z,2.60
2023-03-06T12:04:54.330Z,2.40
2023-03-06T12:06:10.434Z,2.93
2023-03-06T12:07:40.205Z,2.63
2023-03-06T12:09:01.253Z,2.30
2023-03-06T12:10:17.971Z,2.40
2023-03-06T12:11:39.480Z,2.40
2023-03-06T12:13:06.554Z,2.30
2023-03-06T12:14:46.409Z,2.30
2023-03-06T12:16:22.942Z,2.40
2023-03-06T12:17:33.144Z,2.90
2023-03-06T12:18:58.560Z,2.43
2023-03-06T12:20:30.480Z,2.17
2023-03-06T12:21:53.885Z,2.23
2023-03-06T12:23:18.252Z,2.90
2023-03-06T12:24:38.451Z,2.10
2023-03-06T12:25:45.059Z,3.27
2023-03-06T12:27:04.875Z,2.37
2023-03-06T12:28:23.094Z,3.33
2023-03-06T12:29:39.970Z,2.33
2023-03-06T12:31:05.563Z,2.70
2023-03-06T12:32:08.431Z,2.10
2023-03-06T12:33:15.943Z,2.23
2023-03-06T12:34:45.828Z,3.13
2023-03-06T12:36:04.516Z,2.20
2023-03-06T12:37:16.609Z,2.40
2023-03-06T12:38:33.748Z,2.40
2023-03-06T12:40:23.390Z,3.33
2023-03-06T12:41:41.037Z,2.20
2023-03-06T12:43:19.749Z,2.97
2023-03-06T12:44:27.184Z,2.43
2023-03-06T12:45:37.130Z,2.90
2023-03-06T12:46:54.158Z,2.97
2023-03-06T12:47:57.430Z,2.20
2023-03-06T12:49:31.858Z,2.07
2023-03-06T12:50:38.779Z,2.63
2023-03-06T12:51:40.872Z,1.90
2023-03-06T12:52:42.910Z,2.30
2023-03-06T12:53:45.519Z,2.60
2023-03-06T12:54:47.239Z,2.37
2023-03-06T12:55:50.809Z,2.73
2023-03-06T12:56:53.691Z,4.13
2023-03-06T12:57:55.142Z,2.40
2023-03-06T12:58:58.596Z,2.17
2023-03-06T13:00:00.293Z,2.57
2023-03-06T13:01:24.156Z,2.30
2023-03-06T13:02:44.226Z,2.80
2023-03-06T13:04:18.817Z,3.23
2023-03-06T13:05:35.305Z,2.50
2023-03-06T13:06:57.266Z,2.87
2023-03-06T13:08:04.390Z,3.50
2023-03-06T13:09:14.732Z,2.03
2023-03-06T13:10:33.786Z,2.80
2023-03-06T13:12:15.326Z,3.20
2023-03-06T13:13:29.351Z,2.30
2023-03-06T13:14:42.408Z,2.97
2023-03-06T13:16:33.162Z,2.40
2023-03-06T13:17:35.902Z,2.23
2023-03-06T13:18:37.707Z,2.30
2023-03-06T13:19:39.274Z,1.87
2023-03-06T13:20:44.891Z,3.13
2023-03-06T13:22:00.054Z,2.30
2023-03-06T13:23:29.869Z,3.50
2023-03-06T13:24:34.642Z,2.80
2023-03-06T13:25:47.825Z,2.60
2023-03-06T13:27:02.452Z,2.20
2023-03-06T13:28:04.721Z,2.33
2023-03-06T13:29:38.030Z,2.63
2023-03-06T13:30:39.930Z,2.70
2023-03-06T13:31:41.756Z,2.80
2023-03-06T13:32:43.346Z,2.47
2023-03-06T13:33:44.692Z,2.30
2023-03-06T13:34:48.550Z,3.10
2023-03-06T13:35:54.667Z,2.53
2023-03-06T13:37:25.213Z,2.40
2023-03-06T13:38:33.172Z,2.63
2023-03-06T13:39:54.571Z,2.40
2023-03-06T13:41:38.357Z,2.70
2023-03-06T13:43:05.161Z,2.47
2023-03-06T13:44:24.710Z,2.70
2023-03-06T13:45:40.458Z,2.50
2023-03-06T13:46:41.881Z,4.93
2023-03-06T13:48:19.517Z,1.70
2023-03-06T13:49:23.072Z,2.10
2023-03-06T13:50:31.336Z,2.73
2023-03-06T13:51:49.974Z,2.97
2023-03-06T13:53:13.955Z,2.10
2023-03-06T13:54:40.025Z,2.37
2023-03-06T13:56:04.224Z,2.30
2023-03-06T13:57:37.755Z,2.60
2023-03-06T13:58:39.126Z,2.10
2023-03-06T14:00:21.380Z,2.37
2023-03-06T14:01:34.375Z,2.30
2023-03-06T14:03:13.643Z,3.10
2023-03-06T14:04:20.976Z,3.20
2023-03-06T14:05:23.112Z,3.10
2023-03-06T14:06:37.618Z,2.03
2023-03-06T14:07:47.472Z,2.67
2023-03-06T14:08:49.206Z,2.77
2023-03-06T14:10:10.993Z,2.50
2023-03-06T14:11:21.065Z,2.30
2023-03-06T14:12:27.055Z,2.30
2023-03-06T14:13:47.477Z,2.30
2023-03-06T14:14:55.051Z,2.03
2023-03-06T14:15:56.606Z,2.20
2023-03-06T14:16:59.307Z,2.20
2023-03-06T14:18:06.121Z,1.93
2023-03-06T14:19:16.854Z,3.27
2023-03-06T14:20:19.931Z,2.80
2023-03-06T14:21:45.646Z,2.13
2023-03-06T14:22:47.576Z,2.23
2023-03-06T14:24:00.422Z,2.80
2023-03-06T14:25:13.592Z,2.47
2023-03-06T14:26:20.699Z,2.70
2023-03-06T14:27:38.371Z,2.47
2023-03-06T14:28:39.780Z,2.27
2023-03-06T14:29:41.348Z,2.30
2023-03-06T14:30:53.116Z,2.33
2023-03-06T14:31:57.477Z,5.13
2023-03-06T14:32:59.332Z,2.20
2023-03-06T14:34:05.781Z,2.27
2023-03-06T14:35:19.785Z,2.07
2023-03-06T14:36:30.570Z,2.50
2023-03-06T14:37:36.524Z,1.90
2023-03-06T14:38:43.569Z,2.90
2023-03-06T14:39:45.557Z,2.43
2023-03-06T14:40:47.010Z,2.77
2023-03-06T14:41:49.145Z,2.20
2023-03-06T14:43:10.697Z,2.63
2023-03-06T14:44:20.007Z,2.40
2023-03-06T14:45:23.849Z,2.10